createdAt,value
2022-11-16T00:01:07.695Z,98656.34
2022-11-16T00:03:34.985Z,98648.38
2022-11-16T00:06:04.044Z,98642.72
2022-11-16T00:08:33.465Z,98653.34
2022-11-16T00:11:08.651Z,98658.19
2022-11-16T00:13:36.096Z,98655.19
2022-11-16T00:16:03.488Z,98650.03
2022-11-16T00:18:30.786Z,98654.53
2022-11-16T00:20:57.728Z,98661.66
2022-11-16T00:23:24.836Z,98660.16
2022-11-16T00:25:51.690Z,98662.97
2022-11-16T00:28:18.403Z,98658.66
2022-11-16T00:30:46.802Z,98662.34
2022-11-16T00:33:17.884Z,98659.69
2022-11-16T00:35:44.889Z,98657.03
2022-11-16T00:38:11.580Z,98662.34
2022-11-16T00:40:38.501Z,98658.81
2022-11-16T00:43:05.478Z,98659.69
2022-11-16T00:45:32.209Z,98654.38
2022-11-16T00:48:00.595Z,98659.00
2022-11-16T00:50:28.107Z,98669.28
2022-11-16T00:52:54.927Z,98663.31
2022-11-16T00:55:22.490Z,98666.97
2022-11-16T00:57:49.413Z,98660.66
2022-11-16T01:00:19.033Z,98664.13
2022-11-16T01:02:45.757Z,98669.44
2022-11-16T01:05:13.002Z,98667.47
2022-11-16T01:07:40.561Z,98665.00
2022-11-16T01:10:11.333Z,98650.84
2022-11-16T01:12:38.031Z,98650.38
2022-11-16T01:15:06.982Z,98650.38
2022-11-16T01:17:33.645Z,98649.38
2022-11-16T01:20:00.520Z,98652.34
2022-11-16T01:22:27.169Z,98642.75
2022-11-16T01:24:53.855Z,98650.72
2022-11-16T01:27:20.584Z,98635.75
2022-11-16T01:29:47.241Z,98628.47
2022-11-16T01:32:14.004Z,98619.34
2022-11-16T01:34:41.840Z,98616.69
2022-11-16T01:37:21.013Z,98610.56
2022-11-16T01:39:49.599Z,98611.38
2022-11-16T01:42:21.749Z,98612.72
2022-11-16T01:44:57.768Z,98620.34
2022-11-16T01:47:24.925Z,98612.53
2022-11-16T01:50:06.941Z,98612.38
2022-11-16T01:52:37.136Z,98615.38
2022-11-16T01:55:04.553Z,98612.88
2022-11-16T01:57:44.436Z,98610.22
2022-11-16T02:00:14.380Z,98614.53
2022-11-16T02:02:42.913Z,98603.75
2022-11-16T02:05:24.917Z,98610.06
2022-11-16T02:08:34.230Z,98597.44
2022-11-16T02:11:15.467Z,98603.91
2022-11-16T02:13:46.124Z,98600.28
2022-11-16T02:16:32.949Z,98598.44
2022-11-16T02:19:27.871Z,98589.81
2022-11-16T02:22:20.437Z,98585.66
2022-11-16T02:25:02.321Z,98594.63
2022-11-16T02:27:28.966Z,98587.16
2022-11-16T02:29:56.266Z,98583.53
2022-11-16T02:32:28.699Z,98590.16
2022-11-16T02:35:10.177Z,98586.81
2022-11-16T02:37:40.580Z,98587.97
2022-11-16T02:40:10.906Z,98586.00
2022-11-16T02:42:44.856Z,98592.31
2022-11-16T02:45:16.974Z,98601.75
2022-11-16T02:47:44.682Z,98595.09
2022-11-16T02:50:17.939Z,98592.63
2022-11-16T02:52:44.622Z,98596.28
2022-11-16T02:55:11.776Z,98595.97
2022-11-16T02:57:50.362Z,98587.81
2022-11-16T03:00:21.110Z,98582.16
2022-11-16T03:03:01.844Z,98584.69
2022-11-16T03:05:33.077Z,98586.81
2022-11-16T03:08:29.552Z,98585.16
2022-11-16T03:11:26.196Z,98581.69
2022-11-16T03:14:01.000Z,98587.81
2022-11-16T03:16:32.019Z,98586.69
2022-11-16T03:19:02.160Z,98585.31
2022-11-16T03:21:45.632Z,98585.16
2022-11-16T03:24:13.856Z,98581.00
2022-11-16T03:26:50.919Z,98578.03
2022-11-16T03:29:26.397Z,98590.31
2022-11-16T03:32:03.731Z,98585.84
2022-11-16T03:34:33.510Z,98588.16
2022-11-16T03:37:00.614Z,98585.34
2022-11-16T03:39:31.783Z,98587.47
2022-11-16T03:41:59.760Z,98587.13
2022-11-16T03:44:28.063Z,98582.69
2022-11-16T03:46:54.789Z,98582.69
2022-11-16T03:49:23.444Z,98579.03
2022-11-16T03:51:52.511Z,98584.34
2022-11-16T03:54:19.465Z,98577.53
2022-11-16T03:56:46.200Z,98585.16
2022-11-16T03:59:12.950Z,98583.31
2022-11-16T04:01:44.574Z,98582.69
2022-11-16T04:04:33.354Z,98579.19
2022-11-16T04:07:19.174Z,98580.03
2022-11-16T04:10:04.667Z,98582.84
2022-11-16T04:12:50.240Z,98581.84
2022-11-16T04:15:35.815Z,98588.97
2022-11-16T04:18:21.588Z,98604.41
2022-11-16T04:21:07.266Z,98612.88
2022-11-16T04:23:52.725Z,98603.06
2022-11-16T04:26:39.516Z,98587.81
2022-11-16T04:29:06.289Z,98591.13
2022-11-16T04:31:59.436Z,98591.13
2022-11-16T04:34:46.012Z,98605.91
2022-11-16T04:37:34.051Z,98597.94
2022-11-16T04:40:01.313Z,98588.31
2022-11-16T04:42:28.518Z,98584.81
2022-11-16T04:45:13.777Z,98590.97
2022-11-16T04:47:52.967Z,98584.81
2022-11-16T04:50:23.031Z,98577.03
2022-11-16T04:52:51.275Z,98582.50
2022-11-16T04:55:18.223Z,98588.47
2022-11-16T04:57:46.453Z,98588.63
2022-11-16T05:00:14.564Z,98610.19
2022-11-16T05:02:41.787Z,98608.56
2022-11-16T05:05:09.006Z,98605.75
2022-11-16T05:07:38.258Z,98600.59
2022-11-16T05:10:14.965Z,98600.59
2022-11-16T05:12:42.608Z,98591.81
2022-11-16T05:15:10.552Z,98589.16
2022-11-16T05:17:37.301Z,98589.16
2022-11-16T05:20:28.000Z,98590.13
2022-11-16T05:22:59.974Z,98581.53
2022-11-16T05:25:36.255Z,98590.47
2022-11-16T05:28:05.820Z,98592.28
2022-11-16T05:30:36.145Z,98596.59
2022-11-16T05:33:04.065Z,98593.94
2022-11-16T05:35:33.956Z,98597.28
2022-11-16T05:38:01.740Z,98594.94
2022-11-16T05:40:29.941Z,98599.09
2022-11-16T05:42:58.554Z,98595.63
2022-11-16T05:45:27.712Z,98606.25
2022-11-16T05:47:55.669Z,98605.72
2022-11-16T05:50:22.543Z,98605.56
2022-11-16T05:53:01.425Z,98609.22
2022-11-16T05:55:28.368Z,98605.56
2022-11-16T05:57:55.374Z,98612.38
2022-11-16T06:00:22.440Z,98610.53
2022-11-16T06:02:52.050Z,98610.53
2022-11-16T06:05:23.518Z,98616.88
2022-11-16T06:07:50.779Z,98612.38
2022-11-16T06:10:18.261Z,98614.22
2022-11-16T06:12:48.156Z,98615.84
2022-11-16T06:15:14.892Z,98613.88
2022-11-16T06:17:41.506Z,98617.34
2022-11-16T06:20:10.341Z,98618.34
2022-11-16T06:22:37.697Z,98622.16
2022-11-16T06:25:06.707Z,98623.81
2022-11-16T06:27:40.440Z,98616.03
2022-11-16T06:30:08.897Z,98623.16
2022-11-16T06:32:35.836Z,98627.63
2022-11-16T06:35:04.536Z,98630.28
2022-11-16T06:37:32.286Z,98629.63
2022-11-16T06:39:59.056Z,98634.09
2022-11-16T06:42:26.976Z,98626.16
2022-11-16T06:44:54.782Z,98624.97
2022-11-16T06:47:26.331Z,98631.78
2022-11-16T06:49:53.187Z,98631.44
2022-11-16T06:52:22.427Z,98633.13
2022-11-16T06:54:49.988Z,98631.28
2022-11-16T06:57:17.853Z,98636.44
2022-11-16T06:59:45.040Z,98642.59
2022-11-16T07:02:12.478Z,98645.91
2022-11-16T07:04:39.990Z,98644.06
2022-11-16T07:07:07.704Z,98643.59
2022-11-16T07:09:36.215Z,98648.69
2022-11-16T07:12:04.411Z,98645.72
2022-11-16T07:14:35.853Z,98649.38
2022-11-16T07:17:09.335Z,98655.00
2022-11-16T07:19:36.835Z,98655.00
2022-11-16T07:22:04.279Z,98660.00
2022-11-16T07:24:31.659Z,98663.47
2022-11-16T07:26:58.594Z,98665.81
2022-11-16T07:29:27.476Z,98678.09
2022-11-16T07:32:18.879Z,98673.59
2022-11-16T07:35:08.740Z,98675.28
2022-11-16T07:37:37.364Z,98677.75
2022-11-16T07:40:05.160Z,98678.41
2022-11-16T07:42:31.932Z,98682.56
2022-11-16T07:45:08.068Z,98692.19
2022-11-16T07:47:39.733Z,98683.38
2022-11-16T07:50:10.919Z,98681.25
2022-11-16T07:52:37.740Z,98689.03
2022-11-16T07:55:12.797Z,98690.72
2022-11-16T07:57:41.216Z,98690.53
2022-11-16T08:00:09.439Z,98693.84
2022-11-16T08:02:47.556Z,98692.84
2022-11-16T08:05:18.187Z,98700.81
2022-11-16T08:07:45.910Z,98704.13
2022-11-16T08:10:13.028Z,98699.63
2022-11-16T08:12:40.583Z,98708.28
2022-11-16T08:15:08.135Z,98710.78
2022-11-16T08:17:34.931Z,98712.44
2022-11-16T08:20:03.583Z,98714.09
2022-11-16T08:22:30.389Z,98712.28
2022-11-16T08:24:57.775Z,98712.09
2022-11-16T08:27:25.377Z,98717.25
2022-11-16T08:29:56.049Z,98715.41
2022-11-16T08:32:22.759Z,98713.59
2022-11-16T08:34:49.846Z,98713.59
2022-11-16T08:37:16.783Z,98717.09
2022-11-16T08:39:44.912Z,98715.25
2022-11-16T08:42:11.822Z,98712.59
2022-11-16T08:44:39.920Z,98714.44
2022-11-16T08:47:11.323Z,98726.72
2022-11-16T08:49:50.763Z,98724.88
2022-11-16T08:52:19.383Z,98730.19
2022-11-16T08:54:47.107Z,98725.53
2022-11-16T08:57:13.841Z,98729.69
2022-11-16T08:59:42.488Z,98733.38
2022-11-16T09:02:12.969Z,98732.19
2022-11-16T09:04:39.787Z,98728.53
2022-11-16T09:07:06.535Z,98725.88
2022-11-16T09:09:33.344Z,98726.53
2022-11-16T09:12:00.035Z,98730.69
2022-11-16T09:14:28.935Z,98742.97
2022-11-16T09:16:55.623Z,98739.16
2022-11-16T09:19:22.378Z,98737.34
2022-11-16T09:21:49.006Z,98733.50
2022-11-16T09:24:15.731Z,98735.16
2022-11-16T09:26:42.448Z,98735.00
2022-11-16T09:29:13.423Z,98745.44
2022-11-16T09:31:40.336Z,98741.47
2022-11-16T09:34:07.390Z,98734.16
2022-11-16T09:36:34.248Z,98731.97
2022-11-16T09:39:28.755Z,98730.66
2022-11-16T09:42:19.314Z,98727.66
2022-11-16T09:44:52.130Z,98730.31
2022-11-16T09:47:21.805Z,98734.09
2022-11-16T09:49:56.806Z,98742.75
2022-11-16T09:52:32.790Z,98744.59
2022-11-16T09:55:01.379Z,98747.59
2022-11-16T09:57:33.851Z,98747.41
2022-11-16T10:00:11.176Z,98746.75
2022-11-16T10:02:45.825Z,98748.06
2022-11-16T10:05:15.013Z,98749.75
2022-11-16T10:07:46.653Z,98755.56
2022-11-16T10:10:15.300Z,98756.88
2022-11-16T10:12:47.062Z,98753.41
2022-11-16T10:15:20.875Z,98745.91
2022-11-16T10:18:07.457Z,98748.41
2022-11-16T10:21:04.249Z,98741.06
2022-11-16T10:24:00.364Z,98748.56
2022-11-16T10:26:34.677Z,98739.06
2022-11-16T10:29:38.862Z,98729.97
2022-11-16T10:32:15.541Z,98739.25
2022-11-16T10:34:52.889Z,98729.59
2022-11-16T10:37:20.954Z,98737.78
2022-11-16T10:39:53.132Z,98733.63
2022-11-16T10:42:26.934Z,98731.09
2022-11-16T10:45:08.003Z,98732.47
2022-11-16T10:47:50.135Z,98729.25
2022-11-16T10:50:37.528Z,98732.25
2022-11-16T10:53:04.158Z,98721.16
2022-11-16T10:55:30.832Z,98726.13
2022-11-16T10:58:05.698Z,98721.28
2022-11-16T11:00:49.209Z,98718.00
2022-11-16T11:03:30.899Z,98712.34
2022-11-16T11:05:58.503Z,98716.81
2022-11-16T11:08:30.658Z,98718.66
2022-11-16T11:11:24.112Z,98724.63
2022-11-16T11:14:05.379Z,98729.44
2022-11-16T11:16:32.617Z,98721.47
2022-11-16T11:19:17.292Z,98719.97
2022-11-16T11:21:44.621Z,98723.97
2022-11-16T11:24:43.472Z,98718.66
2022-11-16T11:27:04.876Z,98719.28
2022-11-16T11:29:34.680Z,98717.75
2022-11-16T11:32:05.364Z,98709.94
2022-11-16T11:34:35.258Z,98713.09
2022-11-16T11:37:03.178Z,98712.84
2022-11-16T11:39:37.120Z,98698.88
2022-11-16T11:42:05.213Z,98700.13
2022-11-16T11:44:58.901Z,98699.47
2022-11-16T11:47:56.297Z,98701.44
2022-11-16T11:50:22.100Z,98701.31
2022-11-16T11:53:00.361Z,98705.69
2022-11-16T11:55:27.312Z,98702.50
2022-11-16T11:57:54.824Z,98698.00
2022-11-16T12:00:21.611Z,98701.19
2022-11-16T12:03:36.442Z,98698.06
2022-11-16T12:06:08.639Z,98701.06
2022-11-16T12:09:00.518Z,98696.72
2022-11-16T12:11:35.760Z,98683.91
2022-11-16T12:14:10.888Z,98690.72
2022-11-16T12:16:46.058Z,98688.06
2022-11-16T12:19:38.276Z,98681.72
2022-11-16T12:22:10.683Z,98679.88
2022-11-16T12:24:49.196Z,98675.72
2022-11-16T12:27:40.014Z,98666.94
2022-11-16T12:30:12.114Z,98675.69
2022-11-16T12:32:42.487Z,98665.53
2022-11-16T12:35:09.422Z,98662.50
2022-11-16T12:37:54.345Z,98662.56
2022-11-16T12:40:31.008Z,98659.84
2022-11-16T12:43:21.957Z,98657.91
2022-11-16T12:46:11.863Z,98659.84
2022-11-16T12:49:00.325Z,98653.56
2022-11-16T12:51:36.048Z,98658.00
2022-11-16T12:54:18.776Z,98649.56
2022-11-16T12:57:16.468Z,98649.72
2022-11-16T13:00:04.310Z,98648.72
2022-11-16T13:02:49.190Z,98652.31
2022-11-16T13:05:25.398Z,98648.00
2022-11-16T13:07:55.941Z,98639.13
2022-11-16T13:10:27.739Z,98639.97
2022-11-16T13:13:21.946Z,98644.63
2022-11-16T13:15:47.840Z,98638.69
2022-11-16T13:18:17.776Z,98633.16
2022-11-16T13:21:11.430Z,98626.25
2022-11-16T13:24:00.072Z,98630.09
2022-11-16T13:26:39.123Z,98627.38
2022-11-16T13:29:26.781Z,98616.38
2022-11-16T13:32:16.544Z,98615.34
2022-11-16T13:34:43.449Z,98614.53
2022-11-16T13:37:37.716Z,98613.94
2022-11-16T13:40:04.522Z,98614.88
2022-11-16T13:42:36.031Z,98616.22
2022-11-16T13:45:23.020Z,98618.44
2022-11-16T13:47:58.800Z,98612.97
2022-11-16T13:50:37.571Z,98611.16
2022-11-16T13:56:13.657Z,98601.03
2022-11-16T13:58:45.860Z,98604.06
2022-11-16T14:01:16.788Z,98603.06
2022-11-16T14:04:33.445Z,98607.13
2022-11-16T14:07:00.289Z,98605.41
2022-11-16T14:09:47.385Z,98600.97
2022-11-16T14:12:38.600Z,98593.16
2022-11-16T14:15:17.265Z,98597.50
2022-11-16T14:17:57.096Z,98590.84
2022-11-16T14:20:39.043Z,98582.22
2022-11-16T14:23:11.379Z,98580.88
2022-11-16T14:25:59.431Z,98572.06
2022-11-16T14:28:44.039Z,98574.88
2022-11-16T14:31:25.609Z,98570.31
2022-11-16T14:33:54.745Z,98576.94
2022-11-16T14:36:40.289Z,98577.66
2022-11-16T14:39:19.767Z,98567.88
2022-11-16T14:41:46.652Z,98572.34
2022-11-16T14:44:18.196Z,98565.53
2022-11-16T14:46:45.017Z,98565.53
2022-11-16T14:49:16.049Z,98569.38
2022-11-16T14:51:45.463Z,98566.06
2022-11-16T14:54:25.538Z,98565.06
2022-11-16T14:57:03.597Z,98564.03
2022-11-16T14:59:31.146Z,98564.25
2022-11-16T15:02:01.714Z,98563.56
2022-11-16T15:04:28.414Z,98562.56
2022-11-16T15:06:58.346Z,98559.28
2022-11-16T15:09:34.924Z,98568.06
2022-11-16T15:12:22.575Z,98572.72
2022-11-16T15:14:49.160Z,98574.72
2022-11-16T15:17:20.726Z,98578.41
2022-11-16T15:20:03.761Z,98567.31
2022-11-16T15:22:40.522Z,98567.28
2022-11-16T15:25:26.387Z,98565.84
2022-11-16T15:27:53.264Z,98562.81
2022-11-16T15:30:30.015Z,98555.66
2022-11-16T15:32:56.848Z,98556.63
2022-11-16T15:35:32.097Z,98553.50
2022-11-16T15:38:18.043Z,98552.50
2022-11-16T15:40:53.640Z,98544.22
2022-11-16T15:43:22.076Z,98541.56
2022-11-16T15:45:49.211Z,98537.91
2022-11-16T15:48:25.544Z,98545.94
2022-11-16T15:51:11.890Z,98543.09
2022-11-16T15:53:41.136Z,98537.59
2022-11-16T15:56:36.894Z,98540.63
2022-11-16T15:59:11.580Z,98541.78
2022-11-16T16:01:42.919Z,98532.63
2022-11-16T16:04:14.982Z,98526.31
2022-11-16T16:07:01.819Z,98537.00
2022-11-16T16:09:36.751Z,98535.09
2022-11-16T16:12:23.570Z,98537.41
2022-11-16T16:14:52.164Z,98533.72
2022-11-16T16:17:26.725Z,98519.66
2022-11-16T16:19:58.466Z,98523.94
2022-11-16T16:22:28.605Z,98522.63
2022-11-16T16:24:55.453Z,98521.81
2022-11-16T16:27:27.235Z,98523.50
2022-11-16T16:29:55.395Z,98528.66
2022-11-16T16:57:21.972Z,98520.13
2022-11-16T16:59:49.135Z,98523.06
2022-11-16T17:02:16.781Z,98519.56
2022-11-16T17:04:43.995Z,98517.94
2022-11-16T17:07:10.851Z,98517.75
2022-11-16T17:09:37.621Z,98516.91
2022-11-16T17:12:04.529Z,98515.25
2022-11-16T17:14:31.195Z,98506.47
2022-11-16T17:16:57.854Z,98495.84
2022-11-16T17:19:24.647Z,98507.66
2022-11-16T17:21:52.099Z,98492.88
2022-11-16T17:24:18.749Z,98493.53
2022-11-16T17:26:48.221Z,98489.88
2022-11-16T17:29:15.296Z,98487.22
2022-11-16T17:31:44.201Z,98482.56
2022-11-16T17:34:13.850Z,98489.03
2022-11-16T17:36:42.204Z,98481.22
2022-11-16T17:39:09.042Z,98483.03
2022-11-16T17:41:35.788Z,98469.72
2022-11-16T17:44:02.671Z,98470.59
2022-11-16T17:46:29.583Z,98468.75
2022-11-16T17:48:56.330Z,98468.91
2022-11-16T17:51:24.808Z,98467.94
2022-11-16T17:53:52.113Z,98467.28
2022-11-16T17:56:21.425Z,98467.94
2022-11-16T17:58:50.009Z,98465.59
2022-11-16T18:01:17.030Z,98465.78
2022-11-16T18:03:43.750Z,98473.75
2022-11-16T18:06:13.503Z,98468.78
2022-11-16T18:08:40.995Z,98473.09
2022-11-16T18:11:13.855Z,98461.97
2022-11-16T18:13:40.934Z,98467.28
2022-11-16T18:16:18.781Z,98465.34
2022-11-16T18:18:46.513Z,98460.31
2022-11-16T18:21:20.099Z,98460.31
2022-11-16T18:23:47.628Z,98455.19
2022-11-16T18:26:17.487Z,98451.53
2022-11-16T18:28:45.269Z,98446.38
2022-11-16T18:31:15.432Z,98451.34
2022-11-16T18:33:42.855Z,98442.53
2022-11-16T18:36:10.005Z,98445.56
2022-11-16T18:38:37.434Z,98444.38
2022-11-16T18:41:13.349Z,98434.63
2022-11-16T18:43:41.388Z,98440.09
2022-11-16T18:46:08.097Z,98431.09
2022-11-16T18:48:34.808Z,98426.13
2022-11-16T18:51:02.684Z,98415.69
2022-11-16T18:53:30.600Z,98418.63
2022-11-16T18:55:58.215Z,98414.69
2022-11-16T18:58:49.327Z,98413.69
2022-11-16T19:01:14.793Z,98401.72
2022-11-16T19:03:41.584Z,98407.03
2022-11-16T19:06:09.361Z,98398.44
2022-11-16T19:08:37.840Z,98394.31
2022-11-16T19:11:12.302Z,98385.72
2022-11-16T19:13:40.456Z,98375.56
2022-11-16T19:16:08.381Z,98382.72
2022-11-16T19:18:36.264Z,98382.22
2022-11-16T19:21:10.435Z,98388.56
2022-11-16T19:23:38.197Z,98389.06
2022-11-16T19:26:05.491Z,98390.25
2022-11-16T19:28:40.114Z,98382.84
2022-11-16T19:31:07.803Z,98387.47
2022-11-16T19:33:34.992Z,98378.34
2022-11-16T19:36:09.921Z,98384.03
2022-11-16T19:39:07.281Z,98386.13
2022-11-16T19:41:34.107Z,98384.72
2022-11-16T19:44:01.889Z,98387.72
2022-11-16T19:46:30.803Z,98386.56
2022-11-16T19:48:57.844Z,98392.00
2022-11-16T19:51:32.164Z,98391.53
2022-11-16T19:54:00.098Z,98394.72
2022-11-16T19:56:26.848Z,98378.28
2022-11-16T19:58:53.660Z,98386.06
2022-11-16T20:01:24.539Z,98404.34
2022-11-16T20:03:54.591Z,98397.41
2022-11-16T20:06:24.163Z,98406.19
2022-11-16T20:08:52.699Z,98411.16
2022-11-16T20:11:24.431Z,98400.03
2022-11-16T20:13:53.831Z,98406.84
2022-11-16T20:16:23.314Z,98401.22
2022-11-16T20:18:50.661Z,98401.22
2022-11-16T20:21:21.855Z,98404.38
2022-11-16T20:23:49.446Z,98396.22
2022-11-16T20:26:16.268Z,98381.97
2022-11-16T20:28:43.360Z,98369.19
2022-11-16T20:31:14.969Z,98367.03
2022-11-16T20:33:41.923Z,98367.66
2022-11-16T20:36:11.903Z,98366.19
2022-11-16T20:38:39.547Z,98364.69
2022-11-16T20:41:21.268Z,98352.75
2022-11-16T20:43:51.193Z,98357.53
2022-11-16T20:46:19.032Z,98363.16
2022-11-16T20:48:46.256Z,98362.84
2022-11-16T20:51:19.013Z,98356.53
2022-11-16T20:53:47.508Z,98355.56
2022-11-16T20:56:15.404Z,98363.34
2022-11-16T20:58:42.433Z,98364.53
2022-11-16T21:01:12.838Z,98358.09
2022-11-16T21:03:40.297Z,98354.94
2022-11-16T21:06:10.147Z,98353.59
2022-11-16T21:08:37.290Z,98347.31
2022-11-16T21:11:14.666Z,98343.56
2022-11-16T21:13:59.849Z,98339.88
2022-11-16T21:16:26.587Z,98337.56
2022-11-16T21:18:54.879Z,98333.44
2022-11-16T21:21:21.698Z,98335.91
2022-11-16T21:23:51.809Z,98333.78
2022-11-16T21:26:24.387Z,98328.81
2022-11-16T21:28:52.466Z,98332.41
2022-11-16T21:31:25.595Z,98329.63
2022-11-16T21:33:52.343Z,98322.75
2022-11-16T21:36:21.319Z,98334.09
2022-11-16T21:38:48.638Z,98326.44
2022-11-16T21:41:16.381Z,98320.84
2022-11-16T21:43:43.982Z,98317.84
2022-11-16T21:46:15.429Z,98309.22
2022-11-16T21:48:42.528Z,98300.28
2022-11-16T21:51:14.591Z,98313.09
2022-11-16T21:53:41.289Z,98306.41
2022-11-16T21:56:11.885Z,98315.41
2022-11-16T21:58:39.146Z,98304.44
2022-11-16T22:01:06.180Z,98299.28
2022-11-16T22:03:33.373Z,98300.31
2022-11-16T22:06:20.787Z,98306.31
2022-11-16T22:08:48.029Z,98302.94
2022-11-16T22:11:16.029Z,98301.81
2022-11-16T22:13:43.184Z,98302.28
2022-11-16T22:16:12.078Z,98309.78
2022-11-16T22:18:39.356Z,98299.63
2022-11-16T22:21:06.723Z,98300.16
2022-11-16T22:23:34.193Z,98302.13
2022-11-16T22:26:09.751Z,98306.81
2022-11-16T22:28:37.324Z,98303.13
2022-11-16T22:31:12.106Z,98297.72
2022-11-16T22:33:39.312Z,98294.00
2022-11-16T22:36:09.126Z,98289.38
2022-11-16T22:38:36.330Z,98287.53
2022-11-16T22:41:03.319Z,98287.53
2022-11-16T22:43:30.501Z,98299.16
2022-11-16T22:45:58.884Z,98295.84
2022-11-16T22:48:32.980Z,98300.16
2022-11-16T22:51:24.048Z,98297.03
2022-11-16T22:53:57.349Z,98297.16
2022-11-16T22:56:25.215Z,98288.72
2022-11-16T22:58:51.850Z,98290.69
2022-11-16T23:01:19.285Z,98285.09
2022-11-16T23:03:46.695Z,98286.06
2022-11-16T23:06:13.664Z,98281.78
2022-11-16T23:08:40.964Z,98283.41
2022-11-16T23:11:27.137Z,98281.94
2022-11-16T23:14:13.067Z,98273.97
2022-11-16T23:16:40.867Z,98255.44
2022-11-16T23:19:29.067Z,98257.41
2022-11-16T23:22:15.305Z,98250.28
2022-11-16T23:25:01.362Z,98245.66
2022-11-16T23:27:50.527Z,98240.84
2022-11-16T23:30:17.599Z,98248.47
2022-11-16T23:32:44.335Z,98244.78
2022-11-16T23:35:11.149Z,98249.13
2022-11-16T23:38:07.214Z,98235.91
2022-11-16T23:40:38.473Z,98230.25
2022-11-16T23:43:24.687Z,98228.38
2022-11-16T23:45:51.641Z,98226.06
2022-11-16T23:48:18.650Z,98220.09
2022-11-16T23:50:45.938Z,98221.75
2022-11-16T23:53:12.755Z,98221.63
2022-11-16T23:55:39.829Z,98200.06
2022-11-16T23:58:09.148Z,98199.72
